sensor_id;sensor_type;location;lat;lon;timestamp;pressure;altitude;pressure_sealevel;temperature;humidity
17950;BME280;9100;48.700;9.316;2023-05-29T00:00:05;97765;;;18.28;72.23
17950;BME280;9100;48.700;9.316;2023-05-29T00:01:05;97770.1;;;18.28;72.869
17950;BME280;9100;48.700;9.316;2023-05-29T00:02:05;97762.40000000001;;;18.28;72.652
17950;BME280;9100;48.700;9.316;2023-05-29T00:03:05;97766.2;;;18.26;72.249
17950;BME280;9100;48.700;9.316;2023-05-29T00:04:05;97763.8;;;18.24;73.264
17950;BME280;9100;48.700;9.316;2023-05-29T00:04:56;97769.3;;;18.23;73.673
17950;BME280;9100;48.700;9.316;2023-05-29T00:05:05;97770;;;18.23;73.651
17950;BME280;9100;48.700;9.316;2023-05-29T00:06:05;97762.3;;;18.23;73.792
17950;BME280;9100;48.700;9.316;2023-05-29T00:07:05;97761.2;;;18.24;74.205
17950;BME280;9100;48.700;9.316;2023-05-29T00:08:05;97770;;;18.23;74.279
17950;BME280;9100;48.700;9.316;2023-05-29T00:09:05;97768.5;;;18.22;74.039
17950;BME280;9100;48.700;9.316;2023-05-29T00:09:56;97773.90000000001;;;18.21;74.471
17950;BME280;9100;48.700;9.316;2023-05-29T00:10:06;97773.1;;;18.2;74.631
17950;BME280;9100;48.700;9.316;2023-05-29T00:11:05;97773.90000000001;;;18.21;75.206
17950;BME280;9100;48.700;9.316;2023-05-29T00:12:05;97771.5;;;18.19;74.575
17950;BME280;9100;48.700;9.316;2023-05-29T00:13:05;97774.1;;;18.19;75.203
17950;BME280;9100;48.700;9.316;2023-05-29T00:14:05;97769.9;;;18.18;75.201
17950;BME280;9100;48.700;9.316;2023-05-29T00:14:57;97769.4;;;18.16;75.512
17950;BME280;9100;48.700;9.316;2023-05-29T00:15:06;97765;;;18.17;75.524
17950;BME280;9100;48.700;9.316;2023-05-29T00:16:05;97767.8;;;18.15;75.358
17950;BME280;9100;48.700;9.316;2023-05-29T00:17:05;97771.6;;;18.13;75.419
17950;BME280;9100;48.700;9.316;2023-05-29T00:18:05;97766.7;;;18.11;75.48
17950;BME280;9100;48.700;9.316;2023-05-29T00:19:05;97766.09999999999;;;18.09;76.569
17950;BME280;9100;48.700;9.316;2023-05-29T00:19:56;97766.5;;;18.06;76.469
17950;BME280;9100;48.700;9.316;2023-05-29T00:20:06;97766.5;;;18.06;76.403
17950;BME280;9100;48.700;9.316;2023-05-29T00:21:05;97765.7;;;18.06;76.11
17950;BME280;9100;48.700;9.316;2023-05-29T00:22:05;97763.4;;;18.04;76.217
17950;BME280;9100;48.700;9.316;2023-05-29T00:23:05;97769.6;;;18.03;75.326
17950;BME280;9100;48.700;9.316;2023-05-29T00:24:05;97767.2;;;18.02;76.525
17950;BME280;9100;48.700;9.316;2023-05-29T00:24:56;97767.4;;;18;76.954
17950;BME280;9100;48.700;9.316;2023-05-29T00:25:05;97764;;;18;77.03
17950;BME280;9100;48.700;9.316;2023-05-29T00:26:05;97771.6;;;18.01;76.372
17950;BME280;9100;48.700;9.316;2023-05-29T00:27:05;97762.8;;;18.02;76.937
17950;BME280;9100;48.700;9.316;2023-05-29T00:28:06;97769;;;18.01;77.054
17950;BME280;9100;48.700;9.316;2023-05-29T00:29:05;97759.3;;;17.97;76.677
17950;BME280;9100;48.700;9.316;2023-05-29T00:29:56;97765.5;;;17.96;77.283
17950;BME280;9100;48.700;9.316;2023-05-29T00:30:06;97759.5;;;17.95;77.4
17950;BME280;9100;48.700;9.316;2023-05-29T00:31:05;97764.5;;;17.97;77.834
17950;BME280;9100;48.700;9.316;2023-05-29T00:32:05;97754.4;;;17.95;77.887
17950;BME280;9100;48.700;9.316;2023-05-29T00:33:05;97760.29999999999;;;17.96;78.569
17950;BME280;9100;48.700;9.316;2023-05-29T00:34:05;97753;;;17.92;78.477
17950;BME280;9100;48.700;9.316;2023-05-29T00:34:56;97752.4;;;17.9;78.235
17950;BME280;9100;48.700;9.316;2023-05-29T00:35:05;97756;;;17.89;78.319
17950;BME280;9100;48.700;9.316;2023-05-29T00:36:05;97753.2;;;17.91;77.837
17950;BME280;9100;48.700;9.316;2023-05-29T00:37:05;97754.2;;;17.9;77.725
17950;BME280;9100;48.700;9.316;2023-05-29T00:38:05;97753.5;;;17.89;78.385
17950;BME280;9100;48.700;9.316;2023-05-29T00:39:05;97746.7;;;17.88;78.545
17950;BME280;9100;48.700;9.316;2023-05-29T00:39:56;97751.3;;;17.86;78.25
17950;BME280;9100;48.700;9.316;2023-05-29T00:40:06;97750.5;;;17.86;78.28
17950;BME280;9100;48.700;9.316;2023-05-29T00:41:05;97749.7;;;17.85;78.638
17950;BME280;9100;48.700;9.316;2023-05-29T00:42:05;97753.3;;;17.84;78.452
17950;BME280;9100;48.700;9.316;2023-05-29T00:43:05;97752.5;;;17.84;78.406
17950;BME280;9100;48.700;9.316;2023-05-29T00:44:05;97752;;;17.82;78.598
17950;BME280;9100;48.700;9.316;2023-05-29T00:44:56;97750.59999999999;;;17.79;78.54
17950;BME280;9100;48.700;9.316;2023-05-29T00:45:05;97743.6;;;17.8;78.486
17950;BME280;9100;48.700;9.316;2023-05-29T00:46:05;97748.29999999999;;;17.78;78.764
17950;BME280;9100;48.700;9.316;2023-05-29T00:47:05;97747.5;;;17.77;79.151
17950;BME280;9100;48.700;9.316;2023-05-29T00:48:05;97749.3;;;17.77;78.989
17950;BME280;9100;48.700;9.316;2023-05-29T00:49:06;97750.7;;;17.73;79.145
17950;BME280;9100;48.700;9.316;2023-05-29T00:49:56;97751.2;;;17.7;79.085
17950;BME280;9100;48.700;9.316;2023-05-29T00:50:05;97748;;;17.68;79.114
17950;BME280;9100;48.700;9.316;2023-05-29T00:51:05;97746.6;;;17.65;78.893
17950;BME280;9100;48.700;9.316;2023-05-29T00:52:06;97747.90000000001;;;17.63;79.526
17950;BME280;9100;48.700;9.316;2023-05-29T00:53:05;97750.9;;;17.6;79.931
17950;BME280;9100;48.700;9.316;2023-05-29T00:54:05;97746.7;;;17.59;80.328
17950;BME280;9100;48.700;9.316;2023-05-29T00:54:57;97743.6;;;17.57;80.379
17950;BME280;9100;48.700;9.316;2023-05-29T00:55:05;97749.5;;;17.57;80.467
17950;BME280;9100;48.700;9.316;2023-05-29T00:56:05;97742.6;;;17.58;80.964
17950;BME280;9100;48.700;9.316;2023-05-29T00:57:05;97746.2;;;17.57;80.26
17950;BME280;9100;48.700;9.316;2023-05-29T00:58:05;97743.8;;;17.55;80.302
17950;BME280;9100;48.700;9.316;2023-05-29T00:59:05;97747.40000000001;;;17.54;80.062
17950;BME280;9100;48.700;9.316;2023-05-29T00:59:57;97749.59999999999;;;17.51;80.963
17950;BME280;9100;48.700;9.316;2023-05-29T01:00:06;97750.2;;;17.53;81.128
17950;BME280;9100;48.700;9.316;2023-05-29T01:01:05;97746;;;17.52;81.774
17950;BME280;9100;48.700;9.316;2023-05-29T01:02:05;97750.59999999999;;;17.5;82.02
17950;BME280;9100;48.700;9.316;2023-05-29T01:03:05;97749;;;17.49;81.542
17950;BME280;9100;48.700;9.316;2023-05-29T01:04:05;97750.8;;;17.48;82.396
17950;BME280;9100;48.700;9.316;2023-05-29T01:04:56;97751.3;;;17.45;82.68
17950;BME280;9100;48.700;9.316;2023-05-29T01:05:05;97749.5;;;17.45;82.758
17950;BME280;9100;48.700;9.316;2023-05-29T01:06:05;97749.5;;;17.45;82.617
17950;BME280;9100;48.700;9.316;2023-05-29T01:07:05;97753.09999999999;;;17.44;82.81
17950;BME280;9100;48.700;9.316;2023-05-29T01:08:05;97747.90000000001;;;17.44;82.993
17950;BME280;9100;48.700;9.316;2023-05-29T01:09:05;97752.3;;;17.44;83.435
17950;BME280;9100;48.700;9.316;2023-05-29T01:09:56;97755.9;;;17.43;83.108
17950;BME280;9100;48.700;9.316;2023-05-29T01:10:06;97751.5;;;17.43;83.057
17950;BME280;9100;48.700;9.316;2023-05-29T01:11:08;97754.1;;;17.43;83.369
17950;BME280;9100;48.700;9.316;2023-05-29T01:12:08;97751.09999999999;;;17.4;82.671
17950;BME280;9100;48.700;9.316;2023-05-29T01:13:06;97757.5;;;17.37;81.857
17950;BME280;9100;48.700;9.316;2023-05-29T01:14:06;97749.7;;;17.32;81.598
17950;BME280;9100;48.700;9.316;2023-05-29T01:15:01;97755.3;;;17.29;81.906
17950;BME280;9100;48.700;9.316;2023-05-29T01:15:14;97752.9;;;17.28;81.945
17950;BME280;9100;48.700;9.316;2023-05-29T01:16:07;97752.09999999999;;;17.27;82.334
17950;BME280;9100;48.700;9.316;2023-05-29T01:17:06;97754.1;;;17.25;82.59
17950;BME280;9100;48.700;9.316;2023-05-29T01:18:12;97754.3;;;17.24;82.435
17950;BME280;9100;48.700;9.316;2023-05-29T01:19:09;97761.3;;;17.23;82.618
17950;BME280;9100;48.700;9.316;2023-05-29T01:20:04;97749.40000000001;;;17.22;82.832
17950;BME280;9100;48.700;9.316;2023-05-29T01:20:08;97756.1;;;17.23;83.028
17950;BME280;9100;48.700;9.316;2023-05-29T01:21:05;97756.7;;;17.25;83.551
17950;BME280;9100;48.700;9.316;2023-05-29T01:22:08;97754.1;;;17.25;83.842
17950;BME280;9100;48.700;9.316;2023-05-29T01:23:06;97761.3;;;17.23;82.878
17950;BME280;9100;48.700;9.316;2023-05-29T01:24:10;97760.5;;;17.23;83.438
17950;BME280;9100;48.700;9.316;2023-05-29T01:24:58;97758.3;;;17.2;83.248
17950;BME280;9100;48.700;9.316;2023-05-29T01:25:08;97755;;;17.19;83.28
17950;BME280;9100;48.700;9.316;2023-05-29T01:26:07;97758.3;;;17.2;83.14
17950;BME280;9100;48.700;9.316;2023-05-29T01:27:05;97750.8;;;17.18;82.479
17950;BME280;9100;48.700;9.316;2023-05-29T01:28:05;97753.9;;;17.15;82.656
17950;BME280;9100;48.700;9.316;2023-05-29T01:29:06;97750.7;;;17.13;82.544
17950;BME280;9100;48.700;9.316;2023-05-29T01:29:56;97750.9;;;17.12;83.018
17950;BME280;9100;48.700;9.316;2023-05-29T01:30:06;97756.3;;;17.1;83.178
17950;BME280;9100;48.700;9.316;2023-05-29T01:31:05;97750.3;;;17.1;83.37
17950;BME280;9100;48.700;9.316;2023-05-29T01:32:05;97753.9;;;17.09;83.875
17950;BME280;9100;48.700;9.316;2023-05-29T01:33:05;97756.7;;;17.07;84.163
17950;BME280;9100;48.700;9.316;2023-05-29T01:34:05;97758.7;;;17.05;84.483
17950;BME280;9100;48.700;9.316;2023-05-29T01:34:56;97755.4;;;17.05;84.751
17950;BME280;9100;48.700;9.316;2023-05-29T01:35:05;97758.7;;;17.05;84.764
17950;BME280;9100;48.700;9.316;2023-05-29T01:36:06;97755.2;;;17.06;85.306
17950;BME280;9100;48.700;9.316;2023-05-29T01:37:05;97750.40000000001;;;17.03;85.602
17950;BME280;9100;48.700;9.316;2023-05-29T01:38:05;97755.6;;;17.03;85.753
17950;BME280;9100;48.700;9.316;2023-05-29T01:39:05;97749.8;;;17.01;85.813
17950;BME280;9100;48.700;9.316;2023-05-29T01:39:56;97754.2;;;17.01;86.33
17950;BME280;9100;48.700;9.316;2023-05-29T01:40:06;97756.8;;;17.01;86.352
17950;BME280;9100;48.700;9.316;2023-05-29T01:41:05;97747.2;;;17.01;86.817
17950;BME280;9100;48.700;9.316;2023-05-29T01:42:05;97747.2;;;17.01;86.45
17950;BME280;9100;48.700;9.316;2023-05-29T01:43:05;97748;;;17.02;86.528
17950;BME280;9100;48.700;9.316;2023-05-29T01:44:06;97751.70000000001;;;17.01;87.452
17950;BME280;9100;48.700;9.316;2023-05-29T01:44:56;97748.5;;;16.98;87.891
17950;BME280;9100;48.700;9.316;2023-05-29T01:45:05;97747.7;;;16.98;87.912
17950;BME280;9100;48.700;9.316;2023-05-29T01:46:05;97750.3;;;16.98;87.567
17950;BME280;9100;48.700;9.316;2023-05-29T01:47:05;97755.4;;;16.98;86.898
17950;BME280;9100;48.700;9.316;2023-05-29T01:48:05;97754.1;;;16.95;86.601
17950;BME280;9100;48.700;9.316;2023-05-29T01:49:05;97750.9;;;16.93;85.519
17950;BME280;9100;48.700;9.316;2023-05-29T01:49:56;97752.09999999999;;;16.91;86.755
17950;BME280;9100;48.700;9.316;2023-05-29T01:50:05;97756.3;;;16.92;86.906
17950;BME280;9100;48.700;9.316;2023-05-29T01:51:05;97753.9;;;16.9;86.915
17950;BME280;9100;48.700;9.316;2023-05-29T01:52:05;97748;;;16.9;86.633
17950;BME280;9100;48.700;9.316;2023-05-29T01:53:05;97749.8;;;16.89;87.409
17950;BME280;9100;48.700;9.316;2023-05-29T01:54:05;97754.2;;;16.89;87.236
17950;BME280;9100;48.700;9.316;2023-05-29T01:54:56;97759.3;;;16.89;87.366
17950;BME280;9100;48.700;9.316;2023-05-29T01:55:05;97757.8;;;16.88;87.384
17950;BME280;9100;48.700;9.316;2023-05-29T01:56:05;97761.7;;;16.9;87.411
17950;BME280;9100;48.700;9.316;2023-05-29T01:57:05;97758.3;;;16.9;86.935
17950;BME280;9100;48.700;9.316;2023-05-29T01:58:05;97757.8;;;16.88;87.632
17950;BME280;9100;48.700;9.316;2023-05-29T01:59:05;97755.8;;;16.83;86.772
17950;BME280;9100;48.700;9.316;2023-05-29T01:59:56;97763.4;;;16.78;86.622
17950;BME280;9100;48.700;9.316;2023-05-29T02:00:06;97762.59999999999;;;16.78;86.696
17950;BME280;9100;48.700;9.316;2023-05-29T02:01:06;97757.1;;;16.74;87.174
17950;BME280;9100;48.700;9.316;2023-05-29T02:02:06;97768.6;;;16.72;87.773
17950;BME280;9100;48.700;9.316;2023-05-29T02:03:05;97765.5;;;16.7;88.535
17950;BME280;9100;48.700;9.316;2023-05-29T02:04:05;97763.3;;;16.67;89.079
17950;BME280;9100;48.700;9.316;2023-05-29T02:04:56;97761.2;;;16.64;89.33
17950;BME280;9100;48.700;9.316;2023-05-29T02:05:06;97753.5;;;16.64;89.428
17950;BME280;9100;48.700;9.316;2023-05-29T02:06:05;97755.2;;;16.63;89.858
17950;BME280;9100;48.700;9.316;2023-05-29T02:07:05;97761.6;;;16.61;90.187
17950;BME280;9100;48.700;9.316;2023-05-29T02:08:05;97762.59999999999;;;16.6;90.185
17950;BME280;9100;48.700;9.316;2023-05-29T02:09:05;97759.5;;;16.58;90.105
17950;BME280;9100;48.700;9.316;2023-05-29T02:09:56;97767.6;;;16.55;89.927
17950;BME280;9100;48.700;9.316;2023-05-29T02:10:05;97766.8;;;16.54;89.905
17950;BME280;9100;48.700;9.316;2023-05-29T02:11:05;97766;;;16.54;89.71
17950;BME280;9100;48.700;9.316;2023-05-29T02:12:05;97769.6;;;16.53;90.063
17950;BME280;9100;48.700;9.316;2023-05-29T02:13:05;97768.8;;;16.52;90.29
17950;BME280;9100;48.700;9.316;2023-05-29T02:14:05;97775;;;16.51;90.372
17950;BME280;9100;48.700;9.316;2023-05-29T02:14:57;97768.5;;;16.48;90.745
17950;BME280;9100;48.700;9.316;2023-05-29T02:15:06;97770.8;;;16.5;90.865
17950;BME280;9100;48.700;9.316;2023-05-29T02:16:05;97776;;;16.5;91.275
17950;BME280;9100;48.700;9.316;2023-05-29T02:17:05;97768.5;;;16.48;91.521
17950;BME280;9100;48.700;9.316;2023-05-29T02:18:05;97764.5;;;16.46;91.525
17950;BME280;9100;48.700;9.316;2023-05-29T02:19:05;97768.1;;;16.45;91.6
17950;BME280;9100;48.700;9.316;2023-05-29T02:19:57;97773.29999999999;;;16.45;91.793
17950;BME280;9100;48.700;9.316;2023-05-29T02:20:06;97769.6;;;16.46;91.784
17950;BME280;9100;48.700;9.316;2023-05-29T02:21:05;97778.4;;;16.45;91.578
17950;BME280;9100;48.700;9.316;2023-05-29T02:22:05;97774.5;;;16.42;91.453
17950;BME280;9100;48.700;9.316;2023-05-29T02:23:05;97765;;;16.36;91.161
17950;BME280;9100;48.700;9.316;2023-05-29T02:24:05;97762;;;16.33;91.101
17950;BME280;9100;48.700;9.316;2023-05-29T02:24:57;97765.8;;;16.3;90.923
17950;BME280;9100;48.700;9.316;2023-05-29T02:25:05;97766.8;;;16.29;90.921
17950;BME280;9100;48.700;9.316;2023-05-29T02:26:05;97765.8;;;16.3;91.095
17950;BME280;9100;48.700;9.316;2023-05-29T02:27:05;97715.3;;;15.98;91.414
17950;BME280;9100;48.700;9.316;2023-05-29T02:28:05;97753.9;;;16.29;91.857
17950;BME280;9100;48.700;9.316;2023-05-29T02:29:05;97765.8;;;16.3;91.655
17950;BME280;9100;48.700;9.316;2023-05-29T02:29:56;97764.3;;;16.29;91.761
17950;BME280;9100;48.700;9.316;2023-05-29T02:30:06;97763.2;;;16.3;91.784
17950;BME280;9100;48.700;9.316;2023-05-29T02:31:05;97767.8;;;16.28;91.834
17950;BME280;9100;48.700;9.316;2023-05-29T02:32:05;97762.7;;;16.28;91.92
17950;BME280;9100;48.700;9.316;2023-05-29T02:33:05;97761.5;;;16.24;91.535
17950;BME280;9100;48.700;9.316;2023-05-29T02:34:05;97759.90000000001;;;16.23;91.501
17950;BME280;9100;48.700;9.316;2023-05-29T02:34:57;97763.7;;;16.21;91.678
17950;BME280;9100;48.700;9.316;2023-05-29T02:35:06;97759.6;;;16.2;91.762
17950;BME280;9100;48.700;9.316;2023-05-29T02:36:05;97765.5;;;16.2;92.356
17950;BME280;9100;48.700;9.316;2023-05-29T02:37:05;97764.70000000001;;;16.2;92.915
17950;BME280;9100;48.700;9.316;2023-05-29T02:38:05;97762.40000000001;;;16.18;93.235
17950;BME280;9100;48.700;9.316;2023-05-29T02:39:05;97760.79999999999;;;16.17;93.285
17950;BME280;9100;48.700;9.316;2023-05-29T02:39:56;97762.8;;;16.15;93.604
17950;BME280;9100;48.700;9.316;2023-05-29T02:40:05;97761.8;;;16.16;93.619
17950;BME280;9100;48.700;9.316;2023-05-29T02:41:05;97759.2;;;16.16;92.833
17950;BME280;9100;48.700;9.316;2023-05-29T02:42:05;97760.79999999999;;;16.17;92.499
17950;BME280;9100;48.700;9.316;2023-05-29T02:43:05;97761.6;;;16.18;92.717
17950;BME280;9100;48.700;9.316;2023-05-29T02:44:06;97760.79999999999;;;16.17;92.962
17950;BME280;9100;48.700;9.316;2023-05-29T02:44:56;97766.09999999999;;;16.16;92.831
17950;BME280;9100;48.700;9.316;2023-05-29T02:45:05;97764.3;;;16.16;92.844
17950;BME280;9100;48.700;9.316;2023-05-29T02:46:05;97759.2;;;16.16;92.93
17950;BME280;9100;48.700;9.316;2023-05-29T02:47:05;97757.6;;;16.15;92.829
17950;BME280;9100;48.700;9.316;2023-05-29T02:48:06;97760.2;;;16.15;92.366
17950;BME280;9100;48.700;9.316;2023-05-29T02:49:05;97757.8;;;16.14;92.472
17950;BME280;9100;48.700;9.316;2023-05-29T02:49:56;97758;;;16.12;92.2
17950;BME280;9100;48.700;9.316;2023-05-29T02:50:05;97750.3;;;16.12;92.189
17950;BME280;9100;48.700;9.316;2023-05-29T02:51:05;97756.5;;;16.11;91.937
17950;BME280;9100;48.700;9.316;2023-05-29T02:52:05;97756.5;;;16.11;92.605
17950;BME280;9100;48.700;9.316;2023-05-29T02:53:05;97756.7;;;16.1;92.959
17950;BME280;9100;48.700;9.316;2023-05-29T02:54:05;97758.90000000001;;;16.06;92.272
17950;BME280;9100;48.700;9.316;2023-05-29T02:54:56;97752.8;;;16;92.056
17950;BME280;9100;48.700;9.316;2023-05-29T02:55:06;97754.6;;;16;92.042
17950;BME280;9100;48.700;9.316;2023-05-29T02:56:05;97755.6;;;15.99;91.913
17950;BME280;9100;48.700;9.316;2023-05-29T02:57:05;97754;;;15.98;91.737
17950;BME280;9100;48.700;9.316;2023-05-29T02:58:05;97760.1;;;15.97;91.813
17950;BME280;9100;48.700;9.316;2023-05-29T02:59:05;97754.2;;;15.96;92.306
17950;BME280;9100;48.700;9.316;2023-05-29T02:59:56;97756.2;;;15.94;92.441
17950;BME280;9100;48.700;9.316;2023-05-29T03:00:06;97756.2;;;15.94;92.463
17950;BME280;9100;48.700;9.316;2023-05-29T03:01:05;97751.8;;;15.95;92.519
17950;BME280;9100;48.700;9.316;2023-05-29T03:02:05;97753.8;;;15.93;92.74
17950;BME280;9100;48.700;9.316;2023-05-29T03:03:05;97760;;;15.92;92.607
17950;BME280;9100;48.700;9.316;2023-05-29T03:04:05;97754.2;;;15.9;92.539
17950;BME280;9100;48.700;9.316;2023-05-29T03:04:56;97758.8;;;15.88;92.879
17950;BME280;9100;48.700;9.316;2023-05-29T03:05:05;97761.40000000001;;;15.88;93.095
17950;BME280;9100;48.700;9.316;2023-05-29T03:06:05;97758.2;;;15.86;93.66
17950;BME280;9100;48.700;9.316;2023-05-29T03:07:05;97755.7;;;15.86;94.177
17950;BME280;9100;48.700;9.316;2023-05-29T03:08:05;97758.2;;;15.86;94.629
17950;BME280;9100;48.700;9.316;2023-05-29T03:09:05;97757.5;;;15.85;94.8
17950;BME280;9100;48.700;9.316;2023-05-29T03:09:56;97757.1;;;15.82;94.632
17950;BME280;9100;48.700;9.316;2023-05-29T03:10:06;97752.70000000001;;;15.82;94.612
17950;BME280;9100;48.700;9.316;2023-05-29T03:11:05;97742.9;;;15.73;94.548
17950;BME280;9100;48.700;9.316;2023-05-29T03:12:05;97754.3;;;15.77;94.546
17950;BME280;9100;48.700;9.316;2023-05-29T03:13:06;97752.20000000001;;;15.74;94.206
17950;BME280;9100;48.700;9.316;2023-05-29T03:14:05;97749;;;15.72;94.31
17950;BME280;9100;48.700;9.316;2023-05-29T03:14:56;97755.6;;;15.68;94.224
17950;BME280;9100;48.700;9.316;2023-05-29T03:15:05;97751;;;15.7;94.251
17950;BME280;9100;48.700;9.316;2023-05-29T03:16:05;97744.3;;;15.69;94.408
17950;BME280;9100;48.700;9.316;2023-05-29T03:17:05;97748.40000000001;;;15.7;95.166
17950;BME280;9100;48.700;9.316;2023-05-29T03:18:05;97746.1;;;15.68;95.302
17950;BME280;9100;48.700;9.316;2023-05-29T03:19:05;97745.5;;;15.66;95.298
17950;BME280;9100;48.700;9.316;2023-05-29T03:19:57;97745.7;;;15.65;95.239
17950;BME280;9100;48.700;9.316;2023-05-29T03:20:06;97745.7;;;15.65;95.4
17950;BME280;9100;48.700;9.316;2023-05-29T03:21:05;97748.90000000001;;;15.67;95.986
17950;BME280;9100;48.700;9.316;2023-05-29T03:22:05;97746.5;;;15.65;96.532
17950;BME280;9100;48.700;9.316;2023-05-29T03:23:05;97747.29999999999;;;15.66;96.898
17950;BME280;9100;48.700;9.316;2023-05-29T03:24:05;97750.8;;;15.65;96.52
17950;BME280;9100;48.700;9.316;2023-05-29T03:24:57;97742.5;;;15.63;96.494
17950;BME280;9100;48.700;9.316;2023-05-29T03:25:06;97747.5;;;15.64;96.369
17950;BME280;9100;48.700;9.316;2023-05-29T03:26:05;97753.59999999999;;;15.63;95.937
17950;BME280;9100;48.700;9.316;2023-05-29T03:27:05;97758;;;15.63;95.752
17950;BME280;9100;48.700;9.316;2023-05-29T03:28:05;97752.09999999999;;;15.62;95.752
17950;BME280;9100;48.700;9.316;2023-05-29T03:29:05;97756.4;;;15.62;95.771
17950;BME280;9100;48.700;9.316;2023-05-29T03:29:57;97754.8;;;15.61;94.973
17950;BME280;9100;48.700;9.316;2023-05-29T03:30:06;97750.7;;;15.6;94.906
17950;BME280;9100;48.700;9.316;2023-05-29T03:31:05;97759;;;15.62;95.943
17950;BME280;9100;48.700;9.316;2023-05-29T03:32:05;97760.6;;;15.63;96.246
17950;BME280;9100;48.700;9.316;2023-05-29T03:33:05;97752.3;;;15.61;96.554
17950;BME280;9100;48.700;9.316;2023-05-29T03:34:05;97753;;;15.61;96.986
17950;BME280;9100;48.700;9.316;2023-05-29T03:34:57;97758.4;;;15.6;96.562
17950;BME280;9100;48.700;9.316;2023-05-29T03:35:06;97740.59999999999;;;15.51;96.341
17950;BME280;9100;48.700;9.316;2023-05-29T03:36:05;97764.3;;;15.6;96.521
17950;BME280;9100;48.700;9.316;2023-05-29T03:37:06;97709.6;;;15.33;97.333
17950;BME280;9100;48.700;9.316;2023-05-29T03:38:05;97757.3;;;15.56;97.124
17950;BME280;9100;48.700;9.316;2023-05-29T03:39:05;97762.8;;;15.52;97.172
17950;BME280;9100;48.700;9.316;2023-05-29T03:39:57;97763.4;;;15.48;97.473
17950;BME280;9100;48.700;9.316;2023-05-29T03:40:05;97766.8;;;15.48;97.561
17950;BME280;9100;48.700;9.316;2023-05-29T03:41:05;97764.59999999999;;;15.45;98.113
17950;BME280;9100;48.700;9.316;2023-05-29T03:42:05;97762.2;;;15.44;98.604
17950;BME280;9100;48.700;9.316;2023-05-29T03:43:05;97764.20000000001;;;15.42;98.976
17950;BME280;9100;48.700;9.316;2023-05-29T03:44:05;97760.90000000001;;;15.41;99.374
17950;BME280;9100;48.700;9.316;2023-05-29T03:44:57;97763.4;;;15.41;99.825
17950;BME280;9100;48.700;9.316;2023-05-29T03:45:05;97762.40000000001;;;15.42;99.857
17950;BME280;9100;48.700;9.316;2023-05-29T03:46:05;97758.90000000001;;;15.43;100
17950;BME280;9100;48.700;9.316;2023-05-29T03:47:05;97758.1;;;15.43;100
17950;BME280;9100;48.700;9.316;2023-05-29T03:48:05;97763.4;;;15.41;99.836
17950;BME280;9100;48.700;9.316;2023-05-29T03:49:05;97762.5;;;15.36;99.777
17950;BME280;9100;48.700;9.316;2023-05-29T03:49:57;97764.70000000001;;;15.32;100
17950;BME280;9100;48.700;9.316;2023-05-29T03:50:06;97763.9;;;15.32;100
17950;BME280;9100;48.700;9.316;2023-05-29T03:51:05;97768.2;;;15.31;100
17950;BME280;9100;48.700;9.316;2023-05-29T03:52:05;97761.90000000001;;;15.27;100
17950;BME280;9100;48.700;9.316;2023-05-29T03:53:05;97764.5;;;15.27;100
17950;BME280;9100;48.700;9.316;2023-05-29T03:54:05;97765.9;;;15.23;100
17950;BME280;9100;48.700;9.316;2023-05-29T03:54:57;97766.09999999999;;;15.22;100
17950;BME280;9100;48.700;9.316;2023-05-29T03:55:07;97765.3;;;15.21;100
17950;BME280;9100;48.700;9.316;2023-05-29T03:56:05;97765.3;;;15.21;100
17950;BME280;9100;48.700;9.316;2023-05-29T03:57:05;97774.5;;;15.17;100
17950;BME280;9100;48.700;9.316;2023-05-29T03:58:05;97766.09999999999;;;15.15;100
17950;BME280;9100;48.700;9.316;2023-05-29T03:59:05;97780;;;15.14;100
17950;BME280;9100;48.700;9.316;2023-05-29T03:59:56;97777.59999999999;;;15.13;100
17950;BME280;9100;48.700;9.316;2023-05-29T04:00:06;97777.59999999999;;;15.13;100
17950;BME280;9100;48.700;9.316;2023-05-29T04:01:05;97776.8;;;15.12;100
17950;BME280;9100;48.700;9.316;2023-05-29T04:02:05;97777.8;;;15.11;100
17950;BME280;9100;48.700;9.316;2023-05-29T04:03:05;97777.4;;;15.08;100
17950;BME280;9100;48.700;9.316;2023-05-29T04:04:05;97780;;;15.08;100
17950;BME280;9100;48.700;9.316;2023-05-29T04:04:57;97772.7;;;15.04;100
17950;BME280;9100;48.700;9.316;2023-05-29T04:05:06;97774.5;;;15.04;100
17950;BME280;9100;48.700;9.316;2023-05-29T04:06:05;97779.2;;;15.07;100
17950;BME280;9100;48.700;9.316;2023-05-29T04:07:05;97781;;;15.07;100
17950;BME280;9100;48.700;9.316;2023-05-29T04:08:05;97786.40000000001;;;15.05;100
17950;BME280;9100;48.700;9.316;2023-05-29T04:09:05;97778.09999999999;;;15.03;100
17950;BME280;9100;48.700;9.316;2023-05-29T04:09:56;97782.6;;;15.01;100
17950;BME280;9100;48.700;9.316;2023-05-29T04:10:06;97781.6;;;15.02;100
17950;BME280;9100;48.700;9.316;2023-05-29T04:11:05;97785.2;;;15.01;100
17950;BME280;9100;48.700;9.316;2023-05-29T04:12:06;97779.2;;;15;100
17950;BME280;9100;48.700;9.316;2023-05-29T04:13:05;97773.29999999999;;;15;100
17950;BME280;9100;48.700;9.316;2023-05-29T04:14:05;97782;;;14.99;100
17950;BME280;9100;48.700;9.316;2023-05-29T04:14:56;97776.3;;;14.97;100
17950;BME280;9100;48.700;9.316;2023-05-29T04:15:06;97776.3;;;14.97;100
17950;BME280;9100;48.700;9.316;2023-05-29T04:16:06;97762.7;;;14.9;100
17950;BME280;9100;48.700;9.316;2023-05-29T04:17:05;97783.2;;;14.96;100
17950;BME280;9100;48.700;9.316;2023-05-29T04:18:05;97784;;;14.97;100
17950;BME280;9100;48.700;9.316;2023-05-29T04:19:05;97782.5;;;14.96;100
17950;BME280;9100;48.700;9.316;2023-05-29T04:19:56;97790.20000000001;;;14.96;100
17950;BME280;9100;48.700;9.316;2023-05-29T04:20:06;97784.40000000001;;;14.94;100
17950;BME280;9100;48.700;9.316;2023-05-29T04:21:05;97788.59999999999;;;14.95;100
17950;BME280;9100;48.700;9.316;2023-05-29T04:22:06;97788.4;;;14.96;100
17950;BME280;9100;48.700;9.316;2023-05-29T04:23:05;97788.2;;;14.98;100
17950;BME280;9100;48.700;9.316;2023-05-29T04:24:05;97794.9;;;14.99;100
17950;BME280;9100;48.700;9.316;2023-05-29T04:24:56;97793.9;;;15;100
17950;BME280;9100;48.700;9.316;2023-05-29T04:25:05;97791.3;;;15;100